Time,TemperatureF,DewpointF,PressureIn,WindDirection,WindDirectionDegrees,WindSpeedMPH,WindSpeedGustMPH,Humidity,HourlyPrecipIn,Conditions,Clouds,dailyrainin,SolarRadiationWatts/m^2,SoftwareType,DateUTC
2013-01-03 00:01:00,21.3,16.0,30.43,NW,317,2.0,5.0,81,0.00,,,0.01,0,weatherlink.com 1.10,2013-01-03 06:01:00,
2013-01-03 00:16:00,21.4,17.0,30.44,WNW,301,2.0,6.0,83,0.00,,,0.01,0,weatherlink.com 1.10,2013-01-03 06:16:00,
2013-01-03 00:31:00,21.4,17.0,30.44,WNW,296,0.0,6.0,83,0.00,,,0.01,0,weatherlink.com 1.10,2013-01-03 06:31:00,
2013-01-03 00:46:00,21.5,17.0,30.44,NW,310,0.0,5.0,84,0.00,,,0.01,0,weatherlink.com 1.10,2013-01-03 06:46:00,
2013-01-03 01:01:00,21.7,18.0,30.45,WNW,284,5.0,10.0,84,0.00,,,0.00,0,weatherlink.com 1.10,2013-01-03 07:01:00,
2013-01-03 01:16:00,22.0,18.0,30.44,WNW,303,2.0,9.0,84,0.00,,,0.00,0,weatherlink.com 1.10,2013-01-03 07:16:00,
2013-01-03 01:31:00,22.0,18.0,30.44,NW,316,0.0,6.0,84,0.00,,,0.00,0,weatherlink.com 1.10,2013-01-03 07:31:00,
2013-01-03 01:46:00,21.8,18.0,30.45,West,272,2.0,5.0,85,0.00,,,0.00,0,weatherlink.com 1.10,2013-01-03 07:46:00,
2013-01-03 02:01:00,21.9,18.0,30.46,WNW,303,4.0,5.0,85,0.00,,,0.00,0,weatherlink.com 1.10,2013-01-03 08:01:00,
2013-01-03 02:16:00,21.9,18.0,30.46,WNW,293,2.0,4.0,85,0.00,,,0.00,0,weatherlink.com 1.10,2013-01-03 08:16:00,
2013-01-03 02:31:00,21.9,18.0,30.47,WNW,283,2.0,6.0,85,0.00,,,0.00,0,weatherlink.com 1.10,2013-01-03 08:31:00,
2013-01-03 02:46:00,22.3,19.0,30.48,West,264,3.0,6.0,85,0.00,,,0.00,0,weatherlink.com 1.10,2013-01-03 08:46:00,
2013-01-03 03:01:00,22.4,18.0,30.48,West,281,2.0,7.0,84,0.00,,,0.00,0,weatherlink.com 1.10,2013-01-03 09:01:00,
2013-01-03 03:16:00,22.2,18.0,30.48,West,273,2.0,6.0,84,0.00,,,0.00,0,weatherlink.com 1.10,2013-01-03 09:16:00,
2013-01-03 03:31:00,22.3,18.0,30.48,West,268,4.0,10.0,84,0.00,,,0.00,0,weatherlink.com 1.10,2013-01-03 09:31:00,
2013-01-03 03:46:00,22.2,18.0,30.48,West,280,3.0,10.0,85,0.00,,,0.00,0,weatherlink.com 1.10,2013-01-03 09:46:00,
2013-01-03 04:01:00,22.4,19.0,30.48,WSW,246,6.0,11.0,85,0.00,,,0.00,0,weatherlink.com 1.10,2013-01-03 10:01:00,
2013-01-03 04:16:00,22.6,19.0,30.48,West,274,7.0,11.0,84,0.00,,,0.00,0,weatherlink.com 1.10,2013-01-03 10:16:00,
2013-01-03 04:31:00,22.5,18.0,30.47,WNW,282,4.0,10.0,84,0.00,,,0.00,0,weatherlink.com 1.10,2013-01-03 10:31:00,
2013-01-03 04:46:00,22.5,18.0,30.47,West,272,3.0,9.0,84,0.00,,,0.00,0,weatherlink.com 1.10,2013-01-03 10:46:00,
2013-01-03 05:01:00,22.5,18.0,30.47,West,281,9.0,11.0,84,0.00,,,0.00,0,weatherlink.com 1.10,2013-01-03 11:01:00,
2013-01-03 05:16:00,22.4,18.0,30.47,West,273,3.0,8.0,84,0.00,,,0.00,0,weatherlink.com 1.10,2013-01-03 11:16:00,
2013-01-03 05:31:00,22.3,18.0,30.47,West,263,2.0,7.0,84,0.00,,,0.00,0,weatherlink.com 1.10,2013-01-03 11:31:00,
2013-01-03 05:46:00,22.2,18.0,30.47,NW,304,2.0,8.0,84,0.00,,,0.00,0,weatherlink.com 1.10,2013-01-03 11:46:00,
2013-01-03 06:01:00,22.3,18.0,30.47,West,270,5.0,7.0,84,0.00,,,0.00,0,weatherlink.com 1.10,2013-01-03 12:01:00,
2013-01-03 06:16:00,22.2,18.0,30.48,WNW,284,4.0,6.0,85,0.00,,,0.00,0,weatherlink.com 1.10,2013-01-03 12:16:00,
2013-01-03 06:31:00,22.1,18.0,30.48,West,271,2.0,5.0,85,0.00,,,0.00,0,weatherlink.com 1.10,2013-01-03 12:31:00,
2013-01-03 06:46:00,22.2,18.0,30.49,West,265,5.0,7.0,84,0.00,,,0.00,0,weatherlink.com 1.10,2013-01-03 12:46:00,
2013-01-03 07:01:00,22.1,18.0,30.49,SW,225,3.0,7.0,84,0.00,,,0.00,0,weatherlink.com 1.10,2013-01-03 13:01:00,
2013-01-03 07:16:00,21.6,18.0,30.49,West,265,3.0,7.0,84,0.00,,,0.00,0,weatherlink.com 1.10,2013-01-03 13:16:00,
2013-01-03 07:31:00,21.3,18.0,30.48,West,266,4.0,6.0,85,0.00,,,0.00,0,weatherlink.com 1.10,2013-01-03 13:31:00,
2013-01-03 07:46:00,20.6,17.0,30.49,West,271,3.0,6.0,85,0.00,,,0.00,0,weatherlink.com 1.10,2013-01-03 13:46:00,
2013-01-03 08:01:00,19.4,16.0,30.49,WSW,246,2.0,5.0,85,0.00,,,0.00,0,weatherlink.com 1.10,2013-01-03 14:01:00,
2013-01-03 08:16:00,18.1,15.0,30.49,West,266,2.0,6.0,86,0.00,,,0.00,11,weatherlink.com 1.10,2013-01-03 14:16:00,
2013-01-03 08:32:00,17.1,14.0,30.50,West,269,0.0,4.0,86,0.00,,,0.00,16,weatherlink.com 1.10,2013-01-03 14:32:00,
2013-01-03 08:47:00,17.9,15.0,30.50,West,269,2.0,6.0,88,0.00,,,0.00,65,weatherlink.com 1.10,2013-01-03 14:47:00,
2013-01-03 09:02:00,17.7,14.0,30.51,West,279,0.0,2.0,86,0.00,,,0.00,109,weatherlink.com 1.10,2013-01-03 15:02:00,
2013-01-03 09:17:00,18.9,15.0,30.52,West,279,2.0,4.0,86,0.00,,,0.00,76,weatherlink.com 1.10,2013-01-03 15:17:00,
2013-01-03 09:32:00,18.9,15.0,30.52,West,281,2.0,5.0,85,0.00,,,0.00,90,weatherlink.com 1.10,2013-01-03 15:32:00,
2013-01-03 09:47:00,19.1,15.0,30.53,West,280,0.0,3.0,85,0.00,,,0.00,248,weatherlink.com 1.10,2013-01-03 15:47:00,
2013-01-03 10:02:00,20.6,16.0,30.53,West,281,0.0,1.0,83,0.00,,,0.00,320,weatherlink.com 1.10,2013-01-03 16:02:00,
2013-01-03 10:17:00,21.9,17.0,30.54,North,360,0.0,2.0,81,0.00,,,0.00,404,weatherlink.com 1.10,2013-01-03 16:17:00,
2013-01-03 10:32:00,23.1,18.0,30.54,NNW,336,0.0,1.0,79,0.00,,,0.00,200,weatherlink.com 1.10,2013-01-03 16:32:00,
2013-01-03 10:47:00,23.9,18.0,30.54,NNW,332,0.0,3.0,78,0.00,,,0.00,452,weatherlink.com 1.10,2013-01-03 16:47:00,
2013-01-03 11:02:00,24.2,18.0,30.54,NNW,332,0.0,1.0,77,0.00,,,0.00,232,weatherlink.com 1.10,2013-01-03 17:02:00,
2013-01-03 11:17:00,24.2,18.0,30.53,NNW,332,0.0,2.0,77,0.00,,,0.00,413,weatherlink.com 1.10,2013-01-03 17:17:00,
2013-01-03 11:32:00,25.4,19.0,30.52,West,261,1.0,4.0,78,0.00,,,0.00,434,weatherlink.com 1.10,2013-01-03 17:32:00,
2013-01-03 11:47:00,26.0,20.0,30.51,WSW,252,0.0,5.0,77,0.00,,,0.00,448,weatherlink.com 1.10,2013-01-03 17:47:00,
2013-01-03 12:02:00,26.3,20.0,30.50,WSW,252,2.0,5.0,78,0.00,,,0.00,462,weatherlink.com 1.10,2013-01-03 18:02:00,
2013-01-03 12:17:00,26.0,20.0,30.49,WSW,240,5.0,5.0,78,0.00,,,0.00,471,weatherlink.com 1.10,2013-01-03 18:17:00,
2013-01-03 12:32:00,26.2,20.0,30.48,SW,229,6.0,6.0,77,0.00,,,0.00,476,weatherlink.com 1.10,2013-01-03 18:32:00,
2013-01-03 12:47:00,26.4,20.0,30.47,SSW,201,2.0,7.0,77,0.00,,,0.00,504,weatherlink.com 1.10,2013-01-03 18:47:00,
2013-01-03 13:02:00,26.7,20.0,30.47,SSW,203,3.0,9.0,77,0.00,,,0.00,482,weatherlink.com 1.10,2013-01-03 19:02:00,
2013-01-03 13:17:00,27.0,21.0,30.46,SW,215,7.0,9.0,77,0.00,,,0.00,476,weatherlink.com 1.10,2013-01-03 19:17:00,
2013-01-03 14:02:00,28.6,18.0,30.44,West,271,4.0,8.0,65,0.00,,,0.00,443,weatherlink.com 1.10,2013-01-03 20:02:00,
2013-01-03 14:17:00,28.5,18.0,30.44,WSW,244,5.0,9.0,65,0.00,,,0.00,424,weatherlink.com 1.10,2013-01-03 20:17:00,
2013-01-03 14:32:00,28.6,18.0,30.44,WSW,248,5.0,8.0,65,0.00,,,0.00,403,weatherlink.com 1.10,2013-01-03 20:32:00,
2013-01-03 14:48:00,28.5,18.0,30.44,SW,223,8.0,10.0,65,0.00,,,0.00,378,weatherlink.com 1.10,2013-01-03 20:48:00,
2013-01-03 15:03:00,27.8,18.0,30.43,SW,219,7.0,11.0,68,0.00,,,0.00,350,weatherlink.com 1.10,2013-01-03 21:03:00,
2013-01-03 15:18:00,27.9,18.0,30.44,SSW,213,7.0,9.0,67,0.00,,,0.00,320,weatherlink.com 1.10,2013-01-03 21:18:00,
2013-01-03 15:33:00,28.0,19.0,30.44,SW,225,6.0,9.0,69,0.00,,,0.00,287,weatherlink.com 1.10,2013-01-03 21:33:00,
2013-01-03 15:48:00,27.9,19.0,30.43,WSW,244,6.0,9.0,68,0.00,,,0.00,246,weatherlink.com 1.10,2013-01-03 21:48:00,
2013-01-03 16:03:00,27.9,19.0,30.43,SW,225,6.0,8.0,69,0.00,,,0.00,202,weatherlink.com 1.10,2013-01-03 22:03:00,
2013-01-03 16:18:00,27.5,19.0,30.43,SW,221,6.0,8.0,70,0.00,,,0.00,153,weatherlink.com 1.10,2013-01-03 22:18:00,
2013-01-03 16:33:00,27.1,19.0,30.43,SW,221,6.0,7.0,71,0.00,,,0.00,107,weatherlink.com 1.10,2013-01-03 22:33:00,
2013-01-03 16:48:00,26.3,18.0,30.43,SSW,210,6.0,7.0,71,0.00,,,0.00,65,weatherlink.com 1.10,2013-01-03 22:48:00,
2013-01-03 17:03:00,25.7,18.0,30.42,SW,219,5.0,7.0,72,0.00,,,0.00,30,weatherlink.com 1.10,2013-01-03 23:03:00,
2013-01-03 17:18:00,24.7,17.0,30.43,SSW,208,4.0,8.0,72,0.00,,,0.00,11,weatherlink.com 1.10,2013-01-03 23:18:00,
2013-01-03 17:33:00,23.2,16.0,30.42,SSW,213,5.0,7.0,75,0.00,,,0.00,5,weatherlink.com 1.10,2013-01-03 23:33:00,
2013-01-03 17:48:00,22.6,15.0,30.42,SSW,207,7.0,9.0,74,0.00,,,0.00,0,weatherlink.com 1.10,2013-01-03 23:48:00,
2013-01-03 18:03:00,21.1,15.0,30.42,SSW,210,5.0,9.0,77,0.00,,,0.00,0,weatherlink.com 1.10,2013-01-04 00:03:00,
2013-01-03 18:18:00,20.8,15.0,30.42,SW,214,6.0,9.0,77,0.00,,,0.00,0,weatherlink.com 1.10,2013-01-04 00:18:00,
2013-01-03 18:33:00,21.1,15.0,30.42,SSW,213,7.0,8.0,77,0.00,,,0.00,0,weatherlink.com 1.10,2013-01-04 00:33:00,
2013-01-03 18:48:00,21.1,15.0,30.43,SSW,213,7.0,9.0,77,0.00,,,0.00,0,weatherlink.com 1.10,2013-01-04 00:48:00,
2013-01-03 19:03:00,20.8,14.0,30.43,SSW,208,7.0,10.0,76,0.00,,,0.00,0,weatherlink.com 1.10,2013-01-04 01:03:00,
2013-01-03 19:18:00,20.5,14.0,30.43,SW,214,9.0,10.0,76,0.00,,,0.00,0,weatherlink.com 1.10,2013-01-04 01:18:00,
2013-01-03 19:33:00,20.2,14.0,30.43,SW,215,5.0,10.0,76,0.00,,,0.00,0,weatherlink.com 1.10,2013-01-04 01:33:00,
2013-01-03 19:48:00,19.7,13.0,30.43,SSW,203,5.0,9.0,75,0.00,,,0.00,0,weatherlink.com 1.10,2013-01-04 01:48:00,
2013-01-03 20:03:00,19.7,13.0,30.43,SSW,211,9.0,11.0,75,0.00,,,0.00,0,weatherlink.com 1.10,2013-01-04 02:03:00,
2013-01-03 20:18:00,19.2,13.0,30.42,SW,217,8.0,12.0,76,0.00,,,0.00,0,weatherlink.com 1.10,2013-01-04 02:18:00,
2013-01-03 20:33:00,20.0,13.0,30.42,SW,220,12.0,12.0,73,0.00,,,0.00,0,weatherlink.com 1.10,2013-01-04 02:33:00,
2013-01-03 20:48:00,19.8,12.0,30.42,SW,221,9.0,11.0,71,0.00,,,0.00,0,weatherlink.com 1.10,2013-01-04 02:48:00,
2013-01-03 21:03:00,19.7,11.0,30.41,SW,228,8.0,9.0,70,0.00,,,0.00,0,weatherlink.com 1.10,2013-01-04 03:03:00,
2013-01-03 21:18:00,19.7,11.0,30.41,SW,223,7.0,9.0,69,0.00,,,0.00,0,weatherlink.com 1.10,2013-01-04 03:18:00,
2013-01-03 21:33:00,18.7,10.0,30.42,SW,216,5.0,10.0,69,0.00,,,0.00,0,weatherlink.com 1.10,2013-01-04 03:33:00,
2013-01-03 21:48:00,19.2,11.0,30.41,SW,219,7.0,11.0,69,0.00,,,0.00,0,weatherlink.com 1.10,2013-01-04 03:48:00,
2013-01-03 22:03:00,18.1,10.0,30.41,SSW,204,7.0,10.0,69,0.00,,,0.00,0,weatherlink.com 1.10,2013-01-04 04:03:00,
2013-01-03 22:18:00,18.4,9.0,30.41,South,182,10.0,12.0,68,0.00,,,0.00,0,weatherlink.com 1.10,2013-01-04 04:18:00,
2013-01-03 22:33:00,16.5,9.0,30.42,SSW,211,7.0,13.0,72,0.00,,,0.00,0,weatherlink.com 1.10,2013-01-04 04:33:00,
2013-01-03 22:48:00,14.7,8.0,30.42,SW,217,9.0,15.0,75,0.00,,,0.00,0,weatherlink.com 1.10,2013-01-04 04:48:00,
2013-01-03 23:03:00,16.0,9.0,30.42,SW,223,9.0,13.0,73,0.00,,,0.00,0,weatherlink.com 1.10,2013-01-04 05:03:00,
2013-01-03 23:18:00,17.6,10.0,30.42,SW,225,4.0,11.0,71,0.00,,,0.00,0,weatherlink.com 1.10,2013-01-04 05:18:00,
2013-01-03 23:33:00,17.6,8.0,30.42,WNW,289,5.0,8.0,67,0.00,,,0.00,0,weatherlink.com 1.10,2013-01-04 05:33:00,
2013-01-03 23:48:00,15.5,7.0,30.42,WSW,242,1.0,6.0,69,0.00,,,0.00,0,weatherlink.com 1.10,2013-01-04 05:48:00,